Skip Navigation LinksHome page > Tools > METAR decoder Skip Navigation Links

METAR decoder

Settings

METAR

Chicago O'Hare Intl, Chicago

For information only: do not use for flight planning or navigation.
Latest weather
Observation time Tuesday, September 17, 2019 1:51 AM CDT
Local time Tuesday, September 17, 2019 2:06 AM CDT
Flight conditions Instrument Meteorological Conditions
Winds
Wind direction East (80°)
Wind speed 6 mph
Visibility 9 mi.
Sky condition
Ceiling 600 ft. overcast
Cloud layer overcast 600 ft.
Temperature 66°F
Dewpoint 63°F
Altimeter 30.15 in.Hg
Derived measurements
Relative humidity 90%
Density altitude 1133 ft.
Sea-level pressure 30.14 in.Hg
Remarks
Automated weather observing station with precipitation discriminator.
METAR KORD 170651Z 08005KT 9SM OVC006 19/17 A3015 RMK AO2 SLP206 T01890172

InnerDrive.Weather 4.0.6770.0 Release CLR 4.0.30319.42000
Copyright ©2018 Inner Drive Technology. All rights reserved. Portions Copyright ©1986-2018 David Braverman.

Find weather

Site navigation


Skip Navigation Links

Place info

Page info

PayPal - The safer, easier way to pay online!

Return home.

Copyright ©2019 Inner Drive Technology. Purveyors of fine, hand-crafted computer software. Page printed 2019-09-17T07:06:33 UTC.